createdAt,value
2023-01-13T00:02:22.194Z,91.12
2023-01-13T00:05:28.119Z,90.41
2023-01-13T00:08:30.313Z,90.43
2023-01-13T00:11:32.857Z,90.56
2023-01-13T00:14:36.025Z,90.42
2023-01-13T00:17:39.614Z,90.11
2023-01-13T00:20:43.611Z,90.30
2023-01-13T00:23:46.562Z,90.10
2023-01-13T00:26:49.641Z,90.00
2023-01-13T00:29:55.686Z,90.22
2023-01-13T00:33:00.708Z,90.77
2023-01-13T00:36:05.738Z,90.53
2023-01-13T00:39:08.985Z,90.05
2023-01-13T00:42:36.841Z,89.83
2023-01-13T00:45:38.850Z,89.37
2023-01-13T00:48:42.489Z,90.36
2023-01-13T00:51:45.813Z,89.45
2023-01-13T00:54:47.973Z,89.94
2023-01-13T00:57:50.026Z,89.20
2023-01-13T01:00:52.420Z,89.23
2023-01-13T01:03:56.287Z,88.65
2023-01-13T01:06:59.611Z,88.98
2023-01-13T01:10:02.884Z,88.83
2023-01-13T01:13:07.517Z,89.35
2023-01-13T01:16:15.403Z,89.18
2023-01-13T01:19:18.799Z,90.21
2023-01-13T01:22:21.026Z,89.60
2023-01-13T01:25:23.738Z,89.38
2023-01-13T01:28:25.982Z,89.79
2023-01-13T01:31:32.584Z,90.33
2023-01-13T01:34:34.607Z,89.76
2023-01-13T01:37:36.640Z,89.38
2023-01-13T01:40:41.597Z,89.27
2023-01-13T01:44:06.840Z,89.46
2023-01-13T01:47:18.113Z,89.16
2023-01-13T01:50:23.558Z,89.05
2023-01-13T01:53:29.838Z,88.96
2023-01-13T01:56:34.017Z,88.96
2023-01-13T01:59:37.529Z,88.92
2023-01-13T02:02:42.021Z,88.71
2023-01-13T02:05:44.299Z,88.86
2023-01-13T02:08:47.478Z,88.85
2023-01-13T02:12:26.844Z,88.13
2023-01-13T02:15:37.462Z,88.29
2023-01-13T02:19:09.497Z,88.34
2023-01-13T02:22:17.723Z,88.50
2023-01-13T02:25:59.857Z,87.67
2023-01-13T02:29:58.048Z,88.32
2023-01-13T02:33:07.160Z,88.59
2023-01-13T02:36:43.643Z,89.27
2023-01-13T02:39:51.665Z,89.18
2023-01-13T02:43:57.507Z,88.12
2023-01-13T02:47:07.324Z,88.42
2023-01-13T02:50:17.517Z,88.33
2023-01-13T02:53:30.704Z,89.47
2023-01-13T02:56:39.816Z,89.13
2023-01-13T02:59:43.007Z,88.59
2023-01-13T03:02:45.410Z,88.30
2023-01-13T03:05:53.848Z,89.05
2023-01-13T03:09:15.445Z,89.02
2023-01-13T03:12:40.378Z,88.46
2023-01-13T03:16:39.995Z,88.34
2023-01-13T03:19:53.087Z,88.85
2023-01-13T03:23:17.753Z,88.82
2023-01-13T03:26:25.734Z,88.92
2023-01-13T03:29:37.015Z,89.64
2023-01-13T03:32:43.971Z,88.63
2023-01-13T03:35:50.827Z,89.56
2023-01-13T03:39:05.362Z,89.06
2023-01-13T03:42:17.390Z,89.61
2023-01-13T03:45:20.513Z,89.44
2023-01-13T03:48:25.234Z,89.40
2023-01-13T03:51:33.785Z,89.50
2023-01-13T03:54:45.396Z,89.25
2023-01-13T03:57:59.058Z,90.10
2023-01-13T04:01:10.631Z,88.82
2023-01-13T04:04:30.947Z,88.43
2023-01-13T04:08:06.909Z,88.03
2023-01-13T04:11:19.802Z,88.72
2023-01-13T04:14:23.769Z,88.27
2023-01-13T04:17:26.125Z,88.54
2023-01-13T04:20:28.678Z,88.11
2023-01-13T04:23:30.956Z,87.27
2023-01-13T04:26:32.886Z,88.51
2023-01-13T04:29:35.465Z,87.91
2023-01-13T04:32:37.593Z,87.73
2023-01-13T04:35:39.994Z,89.00
2023-01-13T04:38:42.947Z,88.16
2023-01-13T04:41:57.783Z,88.46
2023-01-13T04:44:59.850Z,87.78
2023-01-13T04:48:04.682Z,87.44
2023-01-13T04:51:10.804Z,88.13
2023-01-13T04:54:12.965Z,87.94
2023-01-13T04:57:16.143Z,87.68
2023-01-13T05:00:21.058Z,88.41
2023-01-13T05:03:24.862Z,89.11
2023-01-13T05:06:26.916Z,88.76
2023-01-13T05:09:29.046Z,88.93
2023-01-13T05:12:50.759Z,87.80
2023-01-13T05:16:11.526Z,88.24
2023-01-13T05:19:13.804Z,88.14
2023-01-13T05:22:34.777Z,89.53
2023-01-13T05:25:41.862Z,88.95
2023-01-13T05:28:48.603Z,88.44
2023-01-13T05:31:52.081Z,88.48
2023-01-13T05:34:55.912Z,88.67
2023-01-13T05:37:58.334Z,88.53
2023-01-13T05:41:19.202Z,88.13
2023-01-13T05:44:21.461Z,87.62
2023-01-13T05:47:23.543Z,87.92
2023-01-13T05:50:25.813Z,88.29
2023-01-13T05:53:28.808Z,88.48
2023-01-13T05:56:31.308Z,88.38
2023-01-13T05:59:33.247Z,88.44
2023-01-13T06:02:36.239Z,88.28
2023-01-13T06:05:38.610Z,88.01
2023-01-13T06:08:41.584Z,88.57
2023-01-13T06:11:43.816Z,88.30
2023-01-13T06:14:46.071Z,88.18
2023-01-13T06:17:48.951Z,87.90
2023-01-13T06:20:53.828Z,88.36
2023-01-13T06:23:56.640Z,87.57
2023-01-13T06:26:58.874Z,88.98
2023-01-13T06:30:01.289Z,89.20
2023-01-13T06:33:09.942Z,89.23
2023-01-13T06:36:19.583Z,88.99
2023-01-13T06:39:27.875Z,88.99
2023-01-13T06:42:55.614Z,89.38
2023-01-13T06:45:58.265Z,90.08
2023-01-13T06:49:03.011Z,89.24
2023-01-13T06:52:08.062Z,88.99
2023-01-13T06:55:10.694Z,88.57
2023-01-13T06:58:13.570Z,88.92
2023-01-13T07:01:18.651Z,88.37
2023-01-13T07:04:21.255Z,88.07
2023-01-13T07:07:23.784Z,87.26
2023-01-13T07:10:46.204Z,88.35
2023-01-13T07:14:28.578Z,88.62
2023-01-13T07:17:52.686Z,87.86
2023-01-13T07:21:04.619Z,87.67
2023-01-13T07:24:11.586Z,87.29
2023-01-13T07:27:22.561Z,87.43
2023-01-13T07:30:45.172Z,87.87
2023-01-13T07:33:59.957Z,87.04
2023-01-13T07:37:05.218Z,86.62
2023-01-13T07:40:10.683Z,86.81
2023-01-13T07:43:38.794Z,86.04
2023-01-13T07:46:43.715Z,85.65
2023-01-13T07:58:14.819Z,86.58
2023-01-13T08:04:53.571Z,84.26
2023-01-13T08:08:18.171Z,85.52
2023-01-13T08:11:34.391Z,85.31
2023-01-13T08:14:37.017Z,85.55
2023-01-13T08:17:45.286Z,84.51
2023-01-13T08:21:06.282Z,84.48
2023-01-13T08:24:18.954Z,84.43
2023-01-13T08:27:28.797Z,84.13
2023-01-13T08:30:43.461Z,84.42
2023-01-13T08:33:47.259Z,84.55
2023-01-13T08:36:58.963Z,83.55
2023-01-13T08:40:11.691Z,84.05
2023-01-13T08:43:24.377Z,83.66
2023-01-13T08:46:38.410Z,83.13
2023-01-13T08:49:44.613Z,82.94
2023-01-13T08:52:56.720Z,83.46
2023-01-13T08:56:24.510Z,83.21
2023-01-13T08:59:34.210Z,83.05
2023-01-13T09:07:01.303Z,83.16
2023-01-13T09:15:11.174Z,84.53
2023-01-13T09:19:05.548Z,83.69
2023-01-13T09:31:09.166Z,85.29
2023-01-13T09:34:47.300Z,85.46
2023-01-13T09:38:01.629Z,84.57
2023-01-13T09:41:24.687Z,84.05
2023-01-13T09:44:45.526Z,84.88
2023-01-13T09:48:17.090Z,84.57
2023-01-13T09:55:55.212Z,85.65
2023-01-13T09:59:16.115Z,85.11
2023-01-13T10:02:41.194Z,85.17
2023-01-13T10:10:01.373Z,85.11
2023-01-13T10:13:30.889Z,84.24
2023-01-13T10:16:50.841Z,85.46
2023-01-13T10:20:26.359Z,85.20
2023-01-13T10:23:56.362Z,84.31
2023-01-13T10:27:13.442Z,85.46
2023-01-13T10:30:19.811Z,85.57
2023-01-13T10:33:30.919Z,86.08
2023-01-13T10:36:41.420Z,85.35
2023-01-13T10:39:48.251Z,83.86
2023-01-13T10:43:12.231Z,84.53
2023-01-13T10:46:31.484Z,84.14
2023-01-13T10:49:39.341Z,83.00
2023-01-13T10:53:18.033Z,84.11
2023-01-13T10:56:30.099Z,84.21
2023-01-13T11:19:05.135Z,83.75
2023-01-13T11:22:32.834Z,83.77
2023-01-13T11:26:24.294Z,83.64
2023-01-13T11:30:30.033Z,84.17
2023-01-13T11:34:43.220Z,84.61
2023-01-13T11:57:04.672Z,84.24
2023-01-13T12:00:53.598Z,84.58
2023-01-13T12:09:16.393Z,84.66
2023-01-13T12:13:23.530Z,84.86
2023-01-13T12:17:16.911Z,84.06
2023-01-13T12:26:00.857Z,84.96
2023-01-13T12:30:04.771Z,86.28
2023-01-13T12:38:34.500Z,85.12
2023-01-13T12:42:15.830Z,84.14
2023-01-13T12:45:53.247Z,84.04
2023-01-13T12:49:50.587Z,83.57
2023-01-13T12:53:39.599Z,83.17
2023-01-13T12:56:46.962Z,83.82
2023-01-13T13:00:25.994Z,83.69
2023-01-13T13:04:36.776Z,84.05
2023-01-13T13:07:52.867Z,84.49
2023-01-13T13:11:19.980Z,83.91
2023-01-13T13:14:46.922Z,83.99
2023-01-13T13:18:31.861Z,83.52
2023-01-13T13:22:07.865Z,83.57
2023-01-13T13:25:31.417Z,83.60
2023-01-13T13:29:00.251Z,83.88
2023-01-13T13:32:18.836Z,84.33
2023-01-13T13:35:41.310Z,84.88
2023-01-13T13:39:22.236Z,85.08
2023-01-13T13:42:59.921Z,84.75
2023-01-13T13:46:20.850Z,85.00
2023-01-13T13:49:54.659Z,84.89
2023-01-13T13:53:11.290Z,84.53
2023-01-13T13:56:24.462Z,85.34
2023-01-13T13:59:48.829Z,86.05
2023-01-13T14:02:54.233Z,85.76
2023-01-13T14:06:03.752Z,84.52
2023-01-13T14:09:17.370Z,85.14
2023-01-13T14:12:26.358Z,84.61
2023-01-13T14:15:38.999Z,84.21
2023-01-13T14:18:48.289Z,84.79
2023-01-13T14:21:50.712Z,85.12
2023-01-13T14:24:59.120Z,85.28
2023-01-13T14:28:30.559Z,85.34
2023-01-13T14:31:34.467Z,85.67
2023-01-13T14:34:38.298Z,85.88
2023-01-13T14:37:42.913Z,85.88
2023-01-13T14:40:47.521Z,85.70
2023-01-13T14:43:53.846Z,85.96
2023-01-13T14:47:03.447Z,85.94
2023-01-13T14:50:08.236Z,86.16
2023-01-13T14:53:32.439Z,85.93
2023-01-13T14:56:50.123Z,86.21
2023-01-13T14:59:59.470Z,86.06
2023-01-13T15:03:08.038Z,86.94
2023-01-13T15:06:28.654Z,86.54
2023-01-13T15:09:42.987Z,86.44
2023-01-13T15:12:50.107Z,87.42
2023-01-13T15:15:57.094Z,87.66
2023-01-13T15:19:28.639Z,87.84
2023-01-13T15:22:31.454Z,87.49
2023-01-13T15:25:39.612Z,88.63
2023-01-13T15:28:43.542Z,88.46
2023-01-13T15:31:50.985Z,88.12
2023-01-13T15:35:00.840Z,88.24
2023-01-13T15:38:06.756Z,88.07
2023-01-13T15:41:15.363Z,88.43
2023-01-13T15:44:37.649Z,88.22
2023-01-13T15:47:45.657Z,89.01
2023-01-13T15:50:51.212Z,88.77
2023-01-13T15:54:00.731Z,88.53
2023-01-13T15:57:04.170Z,88.47
2023-01-13T16:00:16.362Z,87.99
2023-01-13T16:03:18.695Z,88.47
2023-01-13T16:06:33.097Z,86.89
2023-01-13T16:09:35.837Z,87.49
2023-01-13T16:12:39.752Z,87.32
2023-01-13T16:15:48.365Z,87.87
2023-01-13T16:18:54.280Z,88.51
2023-01-13T16:21:59.910Z,88.12
2023-01-13T16:25:02.827Z,87.90
2023-01-13T16:28:05.187Z,87.01
2023-01-13T16:31:23.591Z,87.26
2023-01-13T16:34:25.849Z,86.85
2023-01-13T16:37:31.592Z,86.92
2023-01-13T16:40:36.964Z,87.04
2023-01-13T16:43:39.920Z,87.77
2023-01-13T16:46:47.928Z,87.05
2023-01-13T16:49:50.365Z,86.94
2023-01-13T16:52:52.850Z,87.45
2023-01-13T16:55:55.293Z,86.95
2023-01-13T16:59:02.806Z,86.37
2023-01-13T17:02:11.991Z,87.75
2023-01-13T17:05:15.193Z,87.38
2023-01-13T17:08:18.227Z,87.60
2023-01-13T17:11:24.514Z,87.48
2023-01-13T17:14:29.258Z,86.72
2023-01-13T17:17:31.756Z,86.88
2023-01-13T17:20:34.228Z,86.59
2023-01-13T17:23:36.700Z,87.09
2023-01-13T17:26:44.707Z,86.38
2023-01-13T17:29:50.322Z,86.25
2023-01-13T17:32:53.099Z,86.63
2023-01-13T17:35:55.242Z,85.31
2023-01-13T17:38:58.515Z,85.20
2023-01-13T17:42:00.677Z,84.75
2023-01-13T17:45:03.273Z,84.80
2023-01-13T17:48:06.513Z,85.74
2023-01-13T17:51:12.351Z,84.82
2023-01-13T17:54:15.970Z,84.29
2023-01-13T17:57:18.235Z,85.20
2023-01-13T18:00:21.570Z,84.44
2023-01-13T18:03:23.766Z,83.75
2023-01-13T18:06:26.487Z,84.26
2023-01-13T18:09:29.168Z,85.54
2023-01-13T18:12:32.178Z,85.25
2023-01-13T18:15:34.565Z,85.52
2023-01-13T18:18:38.405Z,85.26
2023-01-13T18:21:58.928Z,85.18
2023-01-13T18:25:21.840Z,84.51
2023-01-13T18:28:24.567Z,84.54
2023-01-13T18:31:28.382Z,85.25
2023-01-13T18:34:33.605Z,85.44
2023-01-13T18:37:43.290Z,84.86
2023-01-13T18:40:47.703Z,85.29
2023-01-13T18:43:51.903Z,84.88
2023-01-13T18:46:56.791Z,84.65
2023-01-13T18:49:59.801Z,85.52
2023-01-13T18:53:02.363Z,85.33
2023-01-13T18:56:14.312Z,84.64
2023-01-13T18:59:21.189Z,84.91
2023-01-13T19:02:27.229Z,84.90
2023-01-13T19:05:29.979Z,84.43
2023-01-13T19:08:33.792Z,85.36
2023-01-13T19:11:36.854Z,84.33
2023-01-13T19:14:42.380Z,84.85
2023-01-13T19:17:45.729Z,85.10
2023-01-13T19:20:51.065Z,84.30
2023-01-13T19:23:55.220Z,83.99
2023-01-13T19:26:57.518Z,84.61
2023-01-13T19:30:03.940Z,83.82
2023-01-13T19:33:06.538Z,83.43
2023-01-13T19:36:10.991Z,84.54
2023-01-13T19:39:14.218Z,84.72
2023-01-13T19:42:34.936Z,84.91
2023-01-13T19:45:37.266Z,84.88
2023-01-13T19:48:43.124Z,83.95
2023-01-13T19:51:45.452Z,83.71
2023-01-13T19:54:48.347Z,83.13
2023-01-13T19:57:50.814Z,83.26
2023-01-13T20:00:54.299Z,83.55
2023-01-13T20:04:02.988Z,83.40
2023-01-13T20:07:06.293Z,83.69
2023-01-13T20:10:09.166Z,84.93
2023-01-13T20:13:11.993Z,86.83
2023-01-13T20:16:14.253Z,86.44
2023-01-13T20:19:16.404Z,85.49
2023-01-13T20:22:18.754Z,84.37
2023-01-13T20:25:22.577Z,86.14
2023-01-13T20:28:24.913Z,85.93
2023-01-13T20:31:30.117Z,85.82
2023-01-13T20:34:32.225Z,86.63
2023-01-13T20:37:35.351Z,87.15
2023-01-13T20:40:37.954Z,87.30
2023-01-13T20:43:40.088Z,86.91
2023-01-13T20:46:43.780Z,86.61
2023-01-13T20:49:46.459Z,87.87
2023-01-13T20:52:48.575Z,88.25
2023-01-13T20:55:50.686Z,87.54
2023-01-13T20:58:53.135Z,86.51
2023-01-13T21:01:56.084Z,87.38
2023-01-13T21:05:02.259Z,87.71
2023-01-13T21:08:07.683Z,87.78
2023-01-13T21:11:12.308Z,87.88
2023-01-13T21:14:39.629Z,87.21
2023-01-13T21:18:00.409Z,87.90
2023-01-13T21:21:11.625Z,87.78
2023-01-13T21:24:14.176Z,88.87
2023-01-13T21:27:16.495Z,88.98
2023-01-13T21:30:19.395Z,89.71
2023-01-13T21:33:22.492Z,90.19
2023-01-13T21:36:28.142Z,89.65
2023-01-13T21:39:30.491Z,89.41
2023-01-13T21:42:51.463Z,89.71
2023-01-13T21:46:12.295Z,90.30
2023-01-13T21:49:17.780Z,91.13
2023-01-13T21:52:20.288Z,90.27
2023-01-13T21:55:25.467Z,91.76
2023-01-13T21:58:27.539Z,91.94
2023-01-13T22:01:29.875Z,91.76
2023-01-13T22:04:32.943Z,91.99
2023-01-13T22:07:41.189Z,91.84
2023-01-13T22:10:57.955Z,92.52
2023-01-13T22:14:07.048Z,92.45
2023-01-13T22:17:09.388Z,92.22
2023-01-13T22:20:13.803Z,92.24
2023-01-13T22:23:17.125Z,90.83
2023-01-13T22:26:19.243Z,90.72
2023-01-13T22:29:21.862Z,90.39
2023-01-13T22:32:24.069Z,90.47
2023-01-13T22:35:26.767Z,90.33
2023-01-13T22:38:30.002Z,90.87
2023-01-13T22:41:32.643Z,90.31
2023-01-13T22:44:35.028Z,88.90
2023-01-13T22:47:37.162Z,90.18
2023-01-13T22:50:39.722Z,90.34
2023-01-13T22:53:43.026Z,89.12
2023-01-13T22:56:45.082Z,88.85
2023-01-13T22:59:47.753Z,88.10
2023-01-13T23:02:52.062Z,88.20
2023-01-13T23:05:58.164Z,88.21
2023-01-13T23:09:03.789Z,89.18
2023-01-13T23:12:10.995Z,90.43
2023-01-13T23:15:12.990Z,91.49
2023-01-13T23:18:14.941Z,91.88
2023-01-13T23:21:25.380Z,92.70
2023-01-13T23:24:29.306Z,92.27
2023-01-13T23:27:31.495Z,92.46
2023-01-13T23:30:34.509Z,92.54
2023-01-13T23:33:41.523Z,92.57
2023-01-13T23:36:44.643Z,92.36
2023-01-13T23:39:46.763Z,91.39
2023-01-13T23:42:49.328Z,90.45
2023-01-13T23:45:51.510Z,90.16
2023-01-13T23:48:55.376Z,90.82
2023-01-13T23:51:57.463Z,90.71
2023-01-13T23:54:59.525Z,91.07
2023-01-13T23:58:04.348Z,91.16
